createdAt,value
2018-12-04T00:00:51.301Z,98719.23
2018-12-04T00:01:52.430Z,98716.58
2018-12-04T00:02:53.564Z,98714.92
2018-12-04T00:03:54.682Z,98715.73
2018-12-04T00:04:55.810Z,98717.91
2018-12-04T00:05:56.960Z,98717.91
2018-12-04T00:06:58.082Z,98719.23
2018-12-04T00:07:59.221Z,98716.58
2018-12-04T00:09:00.487Z,98709.95
2018-12-04T00:10:01.743Z,98715.93
2018-12-04T00:11:02.998Z,98717.91
2018-12-04T00:12:04.166Z,98716.25
2018-12-04T00:13:05.295Z,98710.94
2018-12-04T00:14:06.425Z,98714.73
2018-12-04T00:15:07.567Z,98715.41
2018-12-04T00:16:08.695Z,98713.08
2018-12-04T00:17:09.809Z,98714.92
2018-12-04T00:18:11.061Z,98714.92
2018-12-04T00:19:12.180Z,98712.27
2018-12-04T00:20:13.317Z,98714.92
2018-12-04T00:21:14.454Z,98714.08
2018-12-04T00:22:15.589Z,98717.91
2018-12-04T00:23:16.722Z,98713.59
2018-12-04T00:24:17.854Z,98716.58
2018-12-04T00:25:19.138Z,98716.74
2018-12-04T00:26:20.298Z,98711.25
2018-12-04T00:27:21.414Z,98711.25
2018-12-04T00:28:22.545Z,98710.09
2018-12-04T00:29:23.673Z,98707.95
2018-12-04T00:30:24.818Z,98709.28
2018-12-04T00:31:25.948Z,98709.28
2018-12-04T00:32:27.089Z,98706.61
2018-12-04T00:33:28.209Z,98702.63
2018-12-04T00:34:29.334Z,98701.78
2018-12-04T00:35:30.463Z,98701.78
2018-12-04T00:36:31.594Z,98707.43
2018-12-04T00:37:32.722Z,98697.30
2018-12-04T00:38:33.854Z,98700.45
2018-12-04T00:39:34.978Z,98702.11
2018-12-04T00:40:36.111Z,98701.30
2018-12-04T00:41:37.239Z,98699.97
2018-12-04T00:42:38.374Z,98700.45
2018-12-04T00:43:39.497Z,98697.30
2018-12-04T00:44:40.645Z,98699.97
2018-12-04T00:45:41.781Z,98700.97
2018-12-04T00:46:42.914Z,98698.63
2018-12-04T00:47:44.178Z,98699.13
2018-12-04T00:48:45.293Z,98695.65
2018-12-04T00:49:46.422Z,98692.98
2018-12-04T00:50:47.571Z,98692.98
2018-12-04T00:51:48.705Z,98688.67
2018-12-04T00:52:49.826Z,98692.47
2018-12-04T00:53:51.002Z,98689.32
2018-12-04T00:54:52.134Z,98691.98
2018-12-04T00:55:53.294Z,98684.81
2018-12-04T00:56:54.558Z,98687.47
2018-12-04T00:57:55.690Z,98688.48
2018-12-04T00:58:56.817Z,98686.98
2018-12-04T00:59:57.954Z,98689.32
2018-12-04T01:00:59.090Z,98681.34
2018-12-04T01:02:00.226Z,98682.16
2018-12-04T01:03:01.361Z,98680.50
2018-12-04T01:04:02.613Z,98683.00
2018-12-04T01:05:04.133Z,98685.66
2018-12-04T01:06:05.394Z,98684.81
2018-12-04T01:07:06.658Z,98677.34
2018-12-04T01:08:07.786Z,98681.83
2018-12-04T01:09:09.258Z,98681.34
2018-12-04T01:10:10.444Z,98674.36
2018-12-04T01:11:11.589Z,98680.01
2018-12-04T01:12:12.723Z,98675.70
2018-12-04T01:13:13.868Z,98669.05
2018-12-04T01:14:15.001Z,98673.36
2018-12-04T01:15:16.137Z,98664.20
2018-12-04T01:16:17.281Z,98663.72
2018-12-04T01:17:18.425Z,98665.54
2018-12-04T01:18:19.554Z,98667.71
2018-12-04T01:19:20.673Z,98673.36
2018-12-04T01:20:21.826Z,98666.70
2018-12-04T01:21:22.954Z,98670.38
2018-12-04T01:22:24.086Z,98666.38
2018-12-04T01:23:25.234Z,98663.20
2018-12-04T01:24:26.510Z,98660.22
2018-12-04T01:25:34.634Z,98655.41
2018-12-04T01:26:35.755Z,98661.38
2018-12-04T01:27:37.012Z,98656.23
2018-12-04T01:28:38.127Z,98655.73
2018-12-04T01:29:39.246Z,98657.55
2018-12-04T01:30:40.373Z,98651.42
2018-12-04T01:31:41.578Z,98653.24
2018-12-04T01:32:42.718Z,98655.91
2018-12-04T01:33:43.841Z,98651.42
2018-12-04T01:34:44.998Z,98652.43
2018-12-04T01:35:46.158Z,98649.77
2018-12-04T01:36:47.294Z,98647.11
2018-12-04T01:37:48.418Z,98644.45
2018-12-04T01:38:49.553Z,98646.59
2018-12-04T01:39:50.674Z,98646.78
2018-12-04T01:40:51.797Z,98646.59
2018-12-04T01:41:52.970Z,98647.44
2018-12-04T01:42:54.110Z,98646.10
2018-12-04T01:43:55.254Z,98646.78
2018-12-04T01:44:56.393Z,98648.11
2018-12-04T01:45:57.622Z,98646.46
2018-12-04T01:46:58.783Z,98652.91
2018-12-04T01:47:59.921Z,98655.09
2018-12-04T01:49:01.066Z,98646.78
2018-12-04T01:50:03.049Z,98648.92
2018-12-04T01:51:04.185Z,98656.91
2018-12-04T01:52:05.316Z,98642.80
2018-12-04T01:53:06.455Z,98647.59
2018-12-04T01:54:07.593Z,98643.80
2018-12-04T01:55:08.717Z,98645.13
2018-12-04T01:56:09.837Z,98640.95
2018-12-04T01:57:10.956Z,98641.47
2018-12-04T01:58:12.088Z,98637.48
2018-12-04T01:59:13.235Z,98634.48
2018-12-04T02:00:14.369Z,98627.84
2018-12-04T02:01:15.485Z,98631.83
2018-12-04T02:02:16.622Z,98633.64
2018-12-04T02:03:17.781Z,98634.81
2018-12-04T02:04:18.893Z,98630.98
2018-12-04T02:05:20.093Z,98628.16
2018-12-04T02:06:21.249Z,98628.84
2018-12-04T02:07:22.382Z,98623.52
2018-12-04T02:08:23.510Z,98631.50
2018-12-04T02:09:24.642Z,98632.84
2018-12-04T02:10:25.773Z,98634.98
2018-12-04T02:11:26.892Z,98629.17
2018-12-04T02:12:28.013Z,98634.48
2018-12-04T02:13:29.130Z,98638.16
2018-12-04T02:14:30.272Z,98631.50
2018-12-04T02:15:31.418Z,98632.16
2018-12-04T02:16:32.569Z,98630.98
2018-12-04T02:17:33.708Z,98644.45
2018-12-04T02:18:34.830Z,98633.48
2018-12-04T02:19:35.961Z,98637.48
2018-12-04T02:20:37.081Z,98637.48
2018-12-04T02:21:38.209Z,98644.13
2018-12-04T02:22:39.458Z,98643.12
2018-12-04T02:23:40.577Z,98643.93
2018-12-04T02:24:41.694Z,98644.13
2018-12-04T02:25:42.809Z,98641.79
2018-12-04T02:26:43.950Z,98638.80
2018-12-04T02:27:45.085Z,98636.14
2018-12-04T02:28:46.234Z,98629.30
2018-12-04T02:29:47.396Z,98634.81
2018-12-04T02:30:48.515Z,98632.97
2018-12-04T02:31:49.670Z,98626.83
2018-12-04T02:32:50.798Z,98630.30
2018-12-04T02:33:51.932Z,98634.30
2018-12-04T02:34:53.078Z,98626.83
2018-12-04T02:35:54.202Z,98631.95
2018-12-04T02:36:55.333Z,98624.17
2018-12-04T02:37:56.461Z,98626.63
2018-12-04T02:38:57.614Z,98629.30
2018-12-04T02:39:58.760Z,98630.14
2018-12-04T02:40:59.907Z,98626.14
2018-12-04T02:42:01.043Z,98619.17
2018-12-04T02:43:02.302Z,98617.84
2018-12-04T02:44:03.457Z,98626.14
2018-12-04T02:45:05.057Z,98620.83
2018-12-04T02:46:06.187Z,98616.52
2018-12-04T02:47:07.322Z,98626.14
2018-12-04T02:48:08.450Z,98615.99
2018-12-04T02:49:09.575Z,98612.84
2018-12-04T02:50:10.725Z,98612.84
2018-12-04T02:51:11.858Z,98610.19
2018-12-04T02:52:12.991Z,98615.51
2018-12-04T02:53:14.131Z,98614.17
2018-12-04T02:54:15.245Z,98617.65
2018-12-04T02:55:16.368Z,98613.17
2018-12-04T02:56:17.494Z,98616.84
2018-12-04T02:57:18.662Z,98615.51
2018-12-04T02:58:19.801Z,98612.84
2018-12-04T02:59:20.931Z,98609.86
2018-12-04T03:00:22.072Z,98608.34
2018-12-04T03:01:23.207Z,98606.20
2018-12-04T03:02:24.390Z,98610.67
2018-12-04T03:03:25.522Z,98604.55
2018-12-04T03:04:27.275Z,98610.19
2018-12-04T03:05:28.415Z,98612.52
2018-12-04T03:06:29.548Z,98610.19
2018-12-04T03:07:30.674Z,98608.53
2018-12-04T03:08:31.798Z,98608.86
2018-12-04T03:09:32.914Z,98608.86
2018-12-04T03:10:34.046Z,98600.88
2018-12-04T03:11:35.198Z,98611.00
2018-12-04T03:12:36.452Z,98604.86
2018-12-04T03:13:37.722Z,98598.21
2018-12-04T03:14:38.843Z,98595.55
2018-12-04T03:15:39.993Z,98598.70
2018-12-04T03:16:41.110Z,98599.86
2018-12-04T03:17:42.233Z,98600.88
2018-12-04T03:18:43.358Z,98595.55
2018-12-04T03:19:44.482Z,98596.88
2018-12-04T03:20:45.602Z,98596.88
2018-12-04T03:21:46.733Z,98594.55
2018-12-04T03:22:47.863Z,98595.36
2018-12-04T03:23:48.966Z,98598.53
2018-12-04T03:24:50.102Z,98595.03
2018-12-04T03:25:51.251Z,98575.00
2018-12-04T03:26:52.380Z,98595.55
2018-12-04T03:28:00.425Z,98594.55
2018-12-04T03:29:01.562Z,98592.69
2018-12-04T03:30:03.642Z,98587.89
2018-12-04T03:31:04.790Z,98590.55
2018-12-04T03:32:05.925Z,98596.20
2018-12-04T03:33:07.075Z,98593.22
2018-12-04T03:34:08.201Z,98588.90
2018-12-04T03:35:09.445Z,98594.55
2018-12-04T03:36:10.585Z,98591.88
2018-12-04T03:37:11.718Z,98593.53
2018-12-04T03:38:12.850Z,98592.20
2018-12-04T03:39:13.985Z,98590.87
2018-12-04T03:40:15.145Z,98594.02
2018-12-04T03:41:23.143Z,98592.20
2018-12-04T03:42:24.269Z,98593.53
2018-12-04T03:43:25.398Z,98590.55
2018-12-04T03:44:26.533Z,98581.23
2018-12-04T03:45:27.674Z,98586.04
2018-12-04T03:46:28.797Z,98584.91
2018-12-04T03:47:29.930Z,98586.88
2018-12-04T03:48:31.116Z,98586.56
2018-12-04T03:49:32.374Z,98590.03
2018-12-04T03:50:33.496Z,98589.55
2018-12-04T03:51:34.625Z,98583.37
2018-12-04T03:52:35.741Z,98583.37
2018-12-04T03:53:36.895Z,98584.22
2018-12-04T03:54:38.045Z,98589.55
2018-12-04T03:55:39.182Z,98582.57
2018-12-04T03:56:40.318Z,98582.89
2018-12-04T03:57:41.443Z,98588.22
2018-12-04T03:58:42.581Z,98585.55
2018-12-04T03:59:43.715Z,98587.20
2018-12-04T04:00:44.859Z,98588.22
2018-12-04T04:01:46.008Z,98586.56
2018-12-04T04:02:47.129Z,98586.88
2018-12-04T04:03:48.300Z,98581.56
2018-12-04T04:04:49.429Z,98579.71
2018-12-04T04:05:50.553Z,98578.06
2018-12-04T04:06:51.693Z,98579.39
2018-12-04T04:07:52.955Z,98576.24
2018-12-04T04:08:54.097Z,98581.56
2018-12-04T04:09:55.221Z,98573.58
2018-12-04T04:10:56.363Z,98577.57
2018-12-04T04:11:57.494Z,98578.06
2018-12-04T04:12:58.639Z,98581.56
2018-12-04T04:13:59.793Z,98574.39
2018-12-04T04:15:00.915Z,98576.73
2018-12-04T04:16:02.076Z,98574.59
2018-12-04T04:17:03.230Z,98584.22
2018-12-04T04:18:04.357Z,98575.92
2018-12-04T04:19:05.473Z,98574.06
2018-12-04T04:20:06.755Z,98570.92
2018-12-04T04:21:07.891Z,98573.58
2018-12-04T04:22:09.014Z,98570.08
2018-12-04T04:23:10.281Z,98571.24
2018-12-04T04:24:11.410Z,98563.62
2018-12-04T04:25:12.533Z,98564.27
2018-12-04T04:26:13.669Z,98565.59
2018-12-04T04:27:14.797Z,98566.41
2018-12-04T04:28:15.919Z,98564.27
2018-12-04T04:29:17.174Z,98563.42
2018-12-04T04:30:18.335Z,98561.28
2018-12-04T04:31:19.463Z,98559.44
2018-12-04T04:32:20.597Z,98567.41
2018-12-04T04:33:21.730Z,98561.28
2018-12-04T04:34:22.855Z,98558.10
2018-12-04T04:35:23.995Z,98558.10
2018-12-04T04:36:25.130Z,98551.45
2018-12-04T04:37:26.255Z,98554.95
2018-12-04T04:38:27.377Z,98556.97
2018-12-04T04:39:28.502Z,98562.09
2018-12-04T04:40:29.639Z,98561.28
2018-12-04T04:41:30.770Z,98561.77
2018-12-04T04:42:31.973Z,98564.75
2018-12-04T04:43:33.149Z,98564.75
2018-12-04T04:44:34.269Z,98563.95
2018-12-04T04:45:35.417Z,98564.44
2018-12-04T04:46:36.537Z,98565.27
2018-12-04T04:47:37.663Z,98562.30
2018-12-04T04:48:38.833Z,98561.28
2018-12-04T04:49:40.058Z,98559.95
2018-12-04T04:50:41.189Z,98563.95
2018-12-04T04:51:42.310Z,98562.94
2018-12-04T04:52:43.434Z,98564.27
2018-12-04T04:53:44.578Z,98561.28
2018-12-04T04:54:45.803Z,98561.77
2018-12-04T04:55:47.060Z,98561.61
2018-12-04T04:56:48.196Z,98557.61
2018-12-04T04:57:49.322Z,98557.25
2018-12-04T04:58:50.452Z,98552.53
2018-12-04T04:59:51.717Z,98553.77
2018-12-04T05:00:52.867Z,98549.69
2018-12-04T05:01:54.009Z,98546.80
2018-12-04T05:02:55.145Z,98550.85
2018-12-04T05:03:56.270Z,98531.69
2018-12-04T05:04:57.518Z,98544.78
2018-12-04T05:05:58.661Z,98544.99
2018-12-04T05:06:59.798Z,98548.18
2018-12-04T05:08:01.065Z,98550.88
2018-12-04T05:09:04.450Z,98548.42
2018-12-04T05:10:05.934Z,98545.95
2018-12-04T05:11:07.062Z,98541.86
2018-12-04T05:12:08.186Z,98542.06
2018-12-04T05:13:09.333Z,98546.28
2018-12-04T05:14:10.459Z,98545.52
2018-12-04T05:15:11.715Z,98546.40
2018-12-04T05:16:12.844Z,98547.59
2018-12-04T05:17:13.990Z,98548.51
2018-12-04T05:18:15.134Z,98550.90
2018-12-04T05:19:16.258Z,98548.80
2018-12-04T05:20:17.481Z,98549.56
2018-12-04T05:21:18.642Z,98549.62
2018-12-04T05:22:19.771Z,98549.03
2018-12-04T05:23:20.910Z,98550.61
2018-12-04T05:24:22.066Z,98555.87
2018-12-04T05:25:23.286Z,98557.48
2018-12-04T05:26:24.442Z,98552.06
2018-12-04T05:27:25.681Z,98556.30
2018-12-04T05:28:26.811Z,98549.55
2018-12-04T05:29:27.942Z,98546.98
2018-12-04T05:30:29.173Z,98549.09
2018-12-04T05:31:30.322Z,98548.69
2018-12-04T05:32:31.470Z,98547.27
2018-12-04T05:33:32.611Z,98550.42
2018-12-04T05:34:33.755Z,98552.17
2018-12-04T05:35:34.995Z,98551.78
2018-12-04T05:36:36.144Z,98546.57
2018-12-04T05:37:44.145Z,98546.17
2018-12-04T05:38:45.344Z,98547.42
2018-12-04T05:39:46.477Z,98551.88
2018-12-04T05:40:47.702Z,98552.29
2018-12-04T05:41:48.850Z,98548.41
2018-12-04T05:42:49.997Z,98547.17
2018-12-04T05:43:51.141Z,98545.47
2018-12-04T05:44:52.270Z,98551.94
2018-12-04T05:45:53.490Z,98552.69
2018-12-04T05:46:54.626Z,98544.46
2018-12-04T05:47:55.772Z,98546.42
2018-12-04T05:48:56.911Z,98543.88
2018-12-04T05:49:58.038Z,98544.81
2018-12-04T05:50:59.197Z,98550.25
2018-12-04T05:52:00.378Z,98551.22
2018-12-04T05:53:13.567Z,98551.01
2018-12-04T05:54:14.708Z,98548.46
2018-12-04T05:55:15.838Z,98557.10
2018-12-04T05:56:17.003Z,98558.53
2018-12-04T05:57:25.130Z,98558.35
2018-12-04T05:58:26.275Z,98561.12
2018-12-04T05:59:27.405Z,98555.59
2018-12-04T06:00:28.552Z,98555.38
2018-12-04T06:01:29.695Z,98556.52
2018-12-04T06:02:30.825Z,98554.66
2018-12-04T06:03:31.967Z,98557.45
2018-12-04T06:04:33.314Z,98561.28
2018-12-04T06:05:34.453Z,98562.09
2018-12-04T06:06:35.577Z,98565.39
2018-12-04T06:07:36.725Z,98561.69
2018-12-04T06:08:37.912Z,98565.52
2018-12-04T06:09:39.061Z,98564.48
2018-12-04T06:10:40.196Z,98565.30
2018-12-04T06:11:41.335Z,98567.78
2018-12-04T06:12:42.506Z,98565.91
2018-12-04T06:13:43.649Z,98571.08
2018-12-04T06:14:44.786Z,98569.22
2018-12-04T06:15:45.926Z,98564.17
2018-12-04T06:16:47.219Z,98567.69
2018-12-04T06:17:48.423Z,98573.84
2018-12-04T06:18:49.565Z,98570.15
2018-12-04T06:19:50.688Z,98572.82
2018-12-04T06:20:51.832Z,98573.13
2018-12-04T06:21:52.961Z,98574.47
2018-12-04T06:22:54.094Z,98576.13
2018-12-04T06:23:55.205Z,98574.47
2018-12-04T06:24:56.342Z,98572.11
2018-12-04T06:25:57.465Z,98578.80
2018-12-04T06:26:58.719Z,98575.09
2018-12-04T06:27:59.848Z,98580.75
2018-12-04T06:29:00.993Z,98582.44
2018-12-04T06:30:03.066Z,98585.95
2018-12-04T06:31:04.205Z,98575.75
2018-12-04T06:32:05.387Z,98580.07
2018-12-04T06:33:06.581Z,98580.91
2018-12-04T06:34:07.719Z,98580.91
2018-12-04T06:35:08.857Z,98578.23
2018-12-04T06:36:09.994Z,98582.87
2018-12-04T06:37:11.112Z,98581.84
2018-12-04T06:38:12.257Z,98581.66
2018-12-04T06:39:13.369Z,98586.60
2018-12-04T06:40:14.493Z,98589.38
2018-12-04T06:41:15.625Z,98584.14
2018-12-04T06:42:16.758Z,98587.44
2018-12-04T06:43:17.898Z,98586.50
2018-12-04T06:44:19.029Z,98583.95
2018-12-04T06:45:20.215Z,98586.75
2018-12-04T06:46:21.345Z,98592.19
2018-12-04T06:47:22.486Z,98588.48
2018-12-04T06:48:23.617Z,98591.28
2018-12-04T06:49:24.754Z,98589.73
2018-12-04T06:50:25.930Z,98593.02
2018-12-04T06:51:27.061Z,98594.36
2018-12-04T06:52:28.218Z,98595.83
2018-12-04T06:53:29.341Z,98592.62
2018-12-04T06:54:30.466Z,98595.11
2018-12-04T06:55:31.608Z,98594.58
2018-12-04T06:56:32.735Z,98594.89
2018-12-04T06:57:33.886Z,98594.39
2018-12-04T06:58:34.998Z,98594.17
2018-12-04T06:59:36.133Z,98602.20
2018-12-04T07:00:37.279Z,98601.17
2018-12-04T07:01:38.842Z,98604.16
2018-12-04T07:02:39.961Z,98598.80
2018-12-04T07:03:41.100Z,98599.11
2018-12-04T07:04:42.224Z,98598.80
2018-12-04T07:05:43.350Z,98602.62
2018-12-04T07:06:44.495Z,98601.59
2018-12-04T07:07:45.639Z,98603.47
2018-12-04T07:08:46.778Z,98606.14
2018-12-04T07:09:47.909Z,98608.29
2018-12-04T07:10:49.037Z,98609.13
2018-12-04T07:11:50.319Z,98607.80
2018-12-04T07:12:51.480Z,98612.12
2018-12-04T07:13:52.613Z,98609.94
2018-12-04T07:14:53.750Z,98612.62
2018-12-04T07:15:54.894Z,98610.47
2018-12-04T07:16:56.027Z,98611.81
2018-12-04T07:17:57.169Z,98614.48
2018-12-04T07:18:58.309Z,98616.86
2018-12-04T07:19:59.462Z,98612.84
2018-12-04T07:21:00.725Z,98616.86
2018-12-04T07:22:01.862Z,98619.53
2018-12-04T07:23:03.013Z,98614.17
2018-12-04T07:24:04.138Z,98613.84
2018-12-04T07:25:05.518Z,98622.20
2018-12-04T07:26:06.657Z,98618.19
2018-12-04T07:27:07.792Z,98620.87
2018-12-04T07:28:08.937Z,98617.54
2018-12-04T07:29:10.082Z,98621.86
2018-12-04T07:30:11.234Z,98623.73
2018-12-04T07:31:12.353Z,98626.41
2018-12-04T07:32:13.484Z,98625.88
2018-12-04T07:33:14.631Z,98629.89
2018-12-04T07:34:15.758Z,98624.23
2018-12-04T07:35:16.892Z,98633.91
2018-12-04T07:36:18.038Z,98629.39
2018-12-04T07:37:19.301Z,98633.60
2018-12-04T07:38:20.422Z,98630.42
2018-12-04T07:39:21.545Z,98635.78
2018-12-04T07:40:22.685Z,98634.94
2018-12-04T07:41:23.802Z,98639.27
2018-12-04T07:42:24.943Z,98635.78
2018-12-04T07:43:26.114Z,98636.59
2018-12-04T07:44:27.239Z,98640.95
2018-12-04T07:45:28.380Z,98641.75
2018-12-04T07:46:29.526Z,98641.25
2018-12-04T07:47:30.657Z,98640.72
2018-12-04T07:48:31.816Z,98641.56
2018-12-04T07:49:32.965Z,98644.24
2018-12-04T07:50:34.114Z,98644.02
2018-12-04T07:51:35.242Z,98639.27
2018-12-04T07:52:36.374Z,98624.73
2018-12-04T07:53:37.525Z,98655.35
2018-12-04T07:54:38.658Z,98646.30
2018-12-04T07:55:41.833Z,98650.00
2018-12-04T07:56:42.963Z,98647.13
2018-12-04T07:57:44.109Z,98649.81
2018-12-04T07:58:45.248Z,98652.80
2018-12-04T07:59:46.369Z,98650.12
2018-12-04T08:00:47.542Z,98653.11
2018-12-04T08:01:48.772Z,98656.09
2018-12-04T08:02:49.905Z,98655.25
2018-12-04T08:03:51.054Z,98653.41
2018-12-04T08:04:52.200Z,98652.08
2018-12-04T08:05:53.317Z,98655.56
2018-12-04T08:06:54.444Z,98655.88
2018-12-04T08:07:55.585Z,98654.53
2018-12-04T08:08:56.697Z,98653.20
2018-12-04T08:09:57.846Z,98651.05
2018-12-04T08:10:58.971Z,98653.51
2018-12-04T08:12:00.090Z,98656.72
2018-12-04T08:13:01.217Z,98657.02
2018-12-04T08:14:02.540Z,98662.88
2018-12-04T08:15:04.318Z,98662.56
2018-12-04T08:16:05.453Z,98658.36
2018-12-04T08:17:06.602Z,98660.73
2018-12-04T08:18:07.750Z,98658.05
2018-12-04T08:19:08.893Z,98662.88
2018-12-04T08:20:10.082Z,98663.41
2018-12-04T08:21:11.218Z,98667.42
2018-12-04T08:22:12.409Z,98666.40
2018-12-04T08:23:13.538Z,98668.23
2018-12-04T08:24:14.675Z,98667.11
2018-12-04T08:25:15.794Z,98664.44
2018-12-04T08:26:23.906Z,98665.24
2018-12-04T08:27:25.038Z,98667.11
2018-12-04T08:28:26.190Z,98668.14
2018-12-04T08:29:27.334Z,98664.44
2018-12-04T08:30:28.477Z,98666.80
2018-12-04T08:31:29.618Z,98667.83
2018-12-04T08:32:30.768Z,98669.48
2018-12-04T08:33:31.909Z,98664.63
2018-12-04T08:34:33.058Z,98664.31
2018-12-04T08:35:34.197Z,98665.66
2018-12-04T08:36:35.325Z,98664.84
2018-12-04T08:37:36.457Z,98666.49
2018-12-04T08:38:37.597Z,98662.89
2018-12-04T08:39:38.727Z,98669.17
2018-12-04T08:40:39.846Z,98672.88
2018-12-04T08:41:40.986Z,98672.88
2018-12-04T08:42:42.149Z,98672.88
2018-12-04T08:43:43.281Z,98670.51
2018-12-04T08:44:44.510Z,98672.88
2018-12-04T08:45:45.645Z,98672.88
2018-12-04T08:46:46.790Z,98674.22
2018-12-04T08:47:47.921Z,98678.23
2018-12-04T08:48:49.580Z,98678.23
2018-12-04T08:49:50.825Z,98675.55
2018-12-04T08:50:51.966Z,98674.22
2018-12-04T08:51:53.098Z,98680.06
2018-12-04T08:52:54.225Z,98681.41
2018-12-04T08:53:55.389Z,98676.58
2018-12-04T08:54:56.616Z,98684.61
2018-12-04T08:55:57.737Z,98679.26
2018-12-04T08:56:58.874Z,98683.27
2018-12-04T08:58:00.014Z,98680.28
2018-12-04T08:59:01.202Z,98688.63
2018-12-04T09:00:04.207Z,98692.64
2018-12-04T09:01:05.342Z,98684.92
2018-12-04T09:02:06.465Z,98687.59
2018-12-04T09:03:07.578Z,98693.27
2018-12-04T09:04:08.715Z,98694.91
2018-12-04T09:05:09.976Z,98696.75
2018-12-04T09:06:11.331Z,98692.23
2018-12-04T09:07:12.469Z,98697.78
2018-12-04T09:08:13.606Z,98689.66
2018-12-04T09:09:14.965Z,98684.89
2018-12-04T09:10:16.333Z,98687.45
2018-12-04T09:11:17.478Z,98688.78
2018-12-04T09:12:18.610Z,98675.95
2018-12-04T09:13:19.734Z,98695.03
2018-12-04T09:14:20.874Z,98695.00
2018-12-04T09:15:22.117Z,98706.81
2018-12-04T09:16:23.574Z,98700.09
2018-12-04T09:17:24.841Z,98701.73
2018-12-04T09:18:25.981Z,98702.14
2018-12-04T09:19:27.125Z,98703.25
2018-12-04T09:20:28.387Z,98705.39
2018-12-04T09:21:29.638Z,98711.84
2018-12-04T09:22:30.762Z,98704.92
2018-12-04T09:23:31.908Z,98711.06
2018-12-04T09:24:33.181Z,98710.51
2018-12-04T09:25:34.514Z,98719.42
2018-12-04T09:26:35.781Z,98711.97
2018-12-04T09:27:36.993Z,98716.27
2018-12-04T09:28:38.116Z,98720.85
2018-12-04T09:29:39.282Z,98714.77
2018-12-04T09:30:40.597Z,98717.17
2018-12-04T09:31:41.713Z,98716.75
2018-12-04T09:32:42.809Z,98721.64
2018-12-04T09:33:44.000Z,98720.59
2018-12-04T09:34:45.172Z,98722.00
2018-12-04T09:35:46.421Z,98721.54
2018-12-04T09:36:47.692Z,98718.41
2018-12-04T09:37:48.837Z,98726.32
2018-12-04T09:38:49.963Z,98720.73
2018-12-04T09:39:51.106Z,98720.24
2018-12-04T09:40:52.330Z,98728.15
2018-12-04T09:41:53.462Z,98731.70
2018-12-04T09:42:54.598Z,98724.56
2018-12-04T09:43:55.717Z,98724.14
2018-12-04T09:44:56.854Z,98731.51
2018-12-04T09:45:58.081Z,98729.40
2018-12-04T09:46:59.278Z,98736.28
2018-12-04T09:48:00.418Z,98732.34
2018-12-04T09:49:01.562Z,98735.70
2018-12-04T09:50:04.042Z,98733.91
2018-12-04T09:51:05.386Z,98739.42
2018-12-04T09:52:06.510Z,98733.66
2018-12-04T09:53:07.629Z,98733.20
2018-12-04T09:54:08.762Z,98741.20
2018-12-04T09:55:09.905Z,98746.59
2018-12-04T09:56:11.129Z,98737.32
2018-12-04T09:57:12.241Z,98743.99
2018-12-04T09:58:13.361Z,98741.70
2018-12-04T09:59:14.499Z,98745.55
2018-12-04T10:00:15.726Z,98742.77
2018-12-04T10:01:16.977Z,98749.45
2018-12-04T10:02:18.103Z,98745.81
2018-12-04T10:03:19.233Z,98744.98
2018-12-04T10:04:20.353Z,98744.02
2018-12-04T10:05:21.478Z,98713.30
2018-12-04T10:06:22.598Z,98748.40
2018-12-04T10:07:23.722Z,98744.28
2018-12-04T10:08:24.854Z,98746.31
2018-12-04T10:09:25.964Z,98748.66
2018-12-04T10:10:27.122Z,98742.33
2018-12-04T10:11:28.892Z,98753.20
2018-12-04T10:12:30.112Z,98751.87
2018-12-04T10:13:31.237Z,98753.05
2018-12-04T10:14:32.366Z,98748.41
2018-12-04T10:15:33.492Z,98750.44
2018-12-04T10:16:34.714Z,98744.30
2018-12-04T10:17:35.837Z,98745.16
2018-12-04T10:18:37.045Z,98747.51
2018-12-04T10:19:38.226Z,98756.52
2018-12-04T10:20:39.370Z,98749.21
2018-12-04T10:21:40.765Z,98754.75
2018-12-04T10:22:41.918Z,98759.24
2018-12-04T10:23:43.051Z,98755.09
2018-12-04T10:24:44.215Z,98755.09
2018-12-04T10:25:48.939Z,98758.77
2018-12-04T10:26:52.246Z,98756.30
2018-12-04T10:27:53.366Z,98769.98
2018-12-04T10:28:54.493Z,98767.80
2018-12-04T10:29:55.613Z,98769.33
2018-12-04T10:31:02.742Z,98773.02
2018-12-04T10:32:03.994Z,98773.19
2018-12-04T10:33:05.122Z,98776.37
2018-12-04T10:34:06.315Z,98773.37
2018-12-04T10:35:07.469Z,98780.22
2018-12-04T10:36:09.001Z,98779.09
2018-12-04T10:37:10.418Z,98772.95
2018-12-04T10:38:11.533Z,98773.80
2018-12-04T10:39:12.670Z,98776.14
2018-12-04T10:40:13.814Z,98778.13
2018-12-04T10:41:14.974Z,98776.48
2018-12-04T10:42:16.224Z,98779.84
2018-12-04T10:43:17.358Z,98780.36
2018-12-04T10:44:18.489Z,98776.52
2018-12-04T10:45:19.634Z,98785.21
2018-12-04T10:46:20.805Z,98778.79
2018-12-04T10:47:21.942Z,98780.77
2018-12-04T10:48:23.089Z,98787.43
2018-12-04T10:49:24.411Z,98784.94
2018-12-04T10:50:25.595Z,98788.61
2018-12-04T10:51:26.734Z,98790.95
2018-12-04T10:52:27.874Z,98794.63
2018-12-04T10:53:28.998Z,98798.63
2018-12-04T10:54:30.122Z,98794.30
2018-12-04T10:55:31.249Z,98793.98
2018-12-04T10:56:32.414Z,98798.50
2018-12-04T10:57:33.569Z,98804.33
2018-12-04T10:58:34.898Z,98810.17
2018-12-04T10:59:36.017Z,98806.66
2018-12-04T11:00:39.192Z,98806.66
2018-12-04T11:01:46.261Z,98814.34
2018-12-04T11:02:48.438Z,98812.68
2018-12-04T11:03:49.565Z,98813.36
2018-12-04T11:04:50.815Z,98809.38
2018-12-04T11:05:51.945Z,98817.85
2018-12-04T11:06:53.073Z,98813.05
2018-12-04T11:07:54.192Z,98815.88
2018-12-04T11:08:55.322Z,98820.07
2018-12-04T11:09:56.442Z,98822.22
2018-12-04T11:10:57.565Z,98818.41
2018-12-04T11:11:58.726Z,98817.25
2018-12-04T11:12:59.858Z,98819.09
2018-12-04T11:14:00.973Z,98824.75
2018-12-04T11:15:02.317Z,98817.77
2018-12-04T11:16:03.604Z,98817.44
2018-12-04T11:17:04.727Z,98814.94
2018-12-04T11:18:05.853Z,98820.27
2018-12-04T11:19:06.987Z,98824.79
2018-12-04T11:20:09.142Z,98828.47
2018-12-04T11:21:10.293Z,98826.28
2018-12-04T11:22:11.425Z,98825.80
2018-12-04T11:23:12.562Z,98825.48
2018-12-04T11:24:13.709Z,98823.13
2018-12-04T11:25:14.848Z,98824.79
2018-12-04T11:26:15.987Z,98825.11
2018-12-04T11:27:17.122Z,98829.44
2018-12-04T11:28:18.266Z,98832.42
2018-12-04T11:29:19.394Z,98834.36
2018-12-04T11:30:20.545Z,98834.97
2018-12-04T11:31:21.678Z,98834.56
2018-12-04T11:32:22.808Z,98835.17
2018-12-04T11:33:23.957Z,98842.80
2018-12-04T11:34:25.103Z,98842.23
2018-12-04T11:35:26.237Z,98841.17
2018-12-04T11:36:27.370Z,98838.66
2018-12-04T11:37:28.534Z,98842.62
2018-12-04T11:38:29.669Z,98846.45
2018-12-04T11:39:30.787Z,98851.09
2018-12-04T11:40:31.982Z,98849.27
2018-12-04T11:41:33.149Z,98848.27
2018-12-04T11:42:34.274Z,98852.58
2018-12-04T11:43:36.284Z,98846.92
2018-12-04T11:44:37.410Z,98849.11
2018-12-04T11:45:38.555Z,98843.94
2018-12-04T11:46:39.684Z,98838.61
2018-12-04T11:47:40.815Z,98841.27
2018-12-04T11:48:41.949Z,98845.77
2018-12-04T11:49:43.073Z,98850.28
2018-12-04T11:50:44.271Z,98849.97
2018-12-04T11:51:45.408Z,98851.78
2018-12-04T11:52:46.571Z,98847.63
2018-12-04T11:53:47.682Z,98851.63
2018-12-04T11:54:48.811Z,98849.45
2018-12-04T11:55:49.947Z,98857.13
2018-12-04T11:56:51.075Z,98853.01
2018-12-04T11:57:52.238Z,98855.67
2018-12-04T11:58:53.377Z,98857.70
2018-12-04T11:59:54.515Z,98857.37